Time;durP1;ratioP1;P1;durP2;ratioP2;P2;SDS_P1;SDS_P2;PMS_P1;PMS_P2;Temp;Humidity;BMP_temperature;BMP_pressure;BME280_temperature;BME280_humidity;BME280_pressure;Samples;Min_cycle;Max_cycle;Signal;HPM_P1;HPM_P2
2022/07/19 00:00:16;;;;;;;;;;;25.20;56.70;;;;;;4873118;29;20364;-81
2022/07/19 00:02:42;;;;;;;;;;;25.20;56.60;;;;;;4873362;29;19911;-80
2022/07/19 00:05:09;;;;;;;;;;;25.30;56.60;;;;;;4874743;29;19915;-80
2022/07/19 00:07:34;;;;;;;;;;;25.20;56.40;;;;;;4874696;29;19912;-80
2022/07/19 00:10:00;;;;;;;;;;;25.20;56.50;;;;;;4873295;29;19940;-80
2022/07/19 00:12:26;;;;;;;;;;;25.30;56.60;;;;;;4874305;29;19908;-80
2022/07/19 00:14:51;;;;;;;;;;;25.30;56.60;;;;;;4873417;29;19916;-80
2022/07/19 00:17:17;;;;;;;;;;;25.30;57.10;;;;;;4873131;29;19916;-80
2022/07/19 00:19:42;;;;;;;;;;;25.20;56.50;;;;;;4874447;29;19916;-80
2022/07/19 00:22:08;;;;;;;;;;;25.20;56.50;;;;;;4873120;29;19994;-79
2022/07/19 00:24:33;;;;;;;;;;;25.30;56.50;;;;;;4857837;29;19912;-79
2022/07/19 00:26:59;;;;;;;;;;;25.20;56.50;;;;;;4874455;29;20018;-80
2022/07/19 00:29:24;;;;;;;;;;;25.20;56.50;;;;;;4874548;29;19919;-79
2022/07/19 00:31:50;;;;;;;;;;;25.20;56.60;;;;;;4874282;29;19998;-80
2022/07/19 00:34:16;;;;;;;;;;;25.20;56.70;;;;;;4874906;29;19918;-80
2022/07/19 00:36:41;;;;;;;;;;;25.10;56.60;;;;;;4875971;29;20301;-79
2022/07/19 00:39:07;;;;;;;;;;;25.10;56.50;;;;;;4875054;29;19923;-79
2022/07/19 00:41:38;;;;;;;;;;;25.00;56.40;;;;;;4875466;29;19907;-79
2022/07/19 00:44:03;;;;;;;;;;;24.80;56.60;;;;;;4875235;29;19912;-79
2022/07/19 00:46:29;;;;;;;;;;;24.50;56.80;;;;;;4879259;29;19922;-80
2022/07/19 00:48:55;;;;;;;;;;;24.30;57.00;;;;;;4876823;29;19975;-79
2022/07/19 00:51:21;;;;;;;;;;;24.10;57.10;;;;;;4875753;29;19911;-79
2022/07/19 00:53:47;;;;;;;;;;;24.00;57.10;;;;;;4859538;29;19916;-79
2022/07/19 00:56:14;;;;;;;;;;;24.00;57.10;;;;;;4877192;29;20046;-79
2022/07/19 00:58:41;;;;;;;;;;;23.90;57.10;;;;;;4878290;29;19968;-80
2022/07/19 01:01:07;;;;;;;;;;;24.00;57.00;;;;;;4876865;29;19920;-79
2022/07/19 01:03:36;;;;;;;;;;;24.00;57.00;;;;;;4877123;29;19914;-79
2022/07/19 01:06:03;;;;;;;;;;;24.00;57.00;;;;;;4878860;29;19908;-79
2022/07/19 01:08:29;;;;;;;;;;;23.90;56.90;;;;;;4862202;29;19943;-80
2022/07/19 01:10:54;;;;;;;;;;;23.80;57.00;;;;;;4878368;29;19912;-79
2022/07/19 01:13:20;;;;;;;;;;;23.60;57.00;;;;;;4878917;29;20383;-79
2022/07/19 01:15:46;;;;;;;;;;;23.50;57.20;;;;;;4879504;29;19912;-79
2022/07/19 01:18:11;;;;;;;;;;;23.50;57.20;;;;;;4878626;29;20320;-79
2022/07/19 01:20:37;;;;;;;;;;;23.60;57.20;;;;;;4879531;29;20002;-79
2022/07/19 01:23:03;;;;;;;;;;;23.60;57.20;;;;;;4877723;29;20376;-79
2022/07/19 01:25:30;;;;;;;;;;;23.60;57.10;;;;;;4877072;29;20120;-79
2022/07/19 01:27:56;;;;;;;;;;;23.60;57.10;;;;;;4878941;29;19907;-79
2022/07/19 01:30:22;;;;;;;;;;;23.50;57.20;;;;;;4878895;29;20328;-79
2022/07/19 01:32:49;;;;;;;;;;;23.60;57.30;;;;;;4877342;29;20598;-79
2022/07/19 01:35:14;;;;;;;;;;;23.60;57.20;;;;;;4878154;29;19908;-79
2022/07/19 01:37:41;;;;;;;;;;;23.60;57.10;;;;;;4877853;29;19918;-79
2022/07/19 01:40:08;;;;;;;;;;;23.60;57.00;;;;;;4877820;29;19914;-79
2022/07/19 01:42:34;;;;;;;;;;;23.60;57.10;;;;;;4876378;29;19951;-79
2022/07/19 01:44:59;;;;;;;;;;;23.60;57.00;;;;;;4876832;29;19962;-79
2022/07/19 01:47:25;;;;;;;;;;;23.50;56.80;;;;;;4878981;29;19914;-79
2022/07/19 01:49:51;;;;;;;;;;;23.50;56.80;;;;;;4877574;29;19912;-79
2022/07/19 01:52:16;;;;;;;;;;;23.50;56.90;;;;;;4879271;29;19908;-79
2022/07/19 01:54:42;;;;;;;;;;;23.40;57.00;;;;;;4880146;29;20325;-79
2022/07/19 01:57:08;;;;;;;;;;;23.30;57.10;;;;;;4879208;29;19955;-79
2022/07/19 01:59:35;;;;;;;;;;;23.30;57.20;;;;;;4878229;29;19935;-79
2022/07/19 02:02:01;;;;;;;;;;;23.30;57.10;;;;;;4876740;29;19934;-79
2022/07/19 02:04:26;;;;;;;;;;;23.30;57.10;;;;;;4876470;29;19912;-79
2022/07/19 02:06:52;;;;;;;;;;;23.30;57.10;;;;;;4878076;29;19960;-79
2022/07/19 02:09:17;;;;;;;;;;;23.30;57.20;;;;;;4862363;29;19915;-80
2022/07/19 02:11:43;;;;;;;;;;;23.30;57.20;;;;;;4877397;29;19916;-79
2022/07/19 02:14:09;;;;;;;;;;;23.30;57.30;;;;;;4876902;29;20372;-79
2022/07/19 02:16:36;;;;;;;;;;;23.30;57.20;;;;;;4878344;29;19947;-79
2022/07/19 02:19:02;;;;;;;;;;;23.30;57.20;;;;;;4876799;29;19963;-79
2022/07/19 02:21:27;;;;;;;;;;;23.30;57.20;;;;;;4878117;29;19959;-79
2022/07/19 02:23:53;;;;;;;;;;;23.20;57.20;;;;;;4877130;29;19932;-79
2022/07/19 02:26:18;;;;;;;;;;;23.20;57.20;;;;;;4875198;29;20392;-79
2022/07/19 02:28:44;;;;;;;;;;;23.10;57.20;;;;;;4878389;29;19918;-79
2022/07/19 02:31:09;;;;;;;;;;;23.00;57.20;;;;;;4877436;29;19967;-79
2022/07/19 02:33:35;;;;;;;;;;;23.00;57.20;;;;;;4876787;29;20464;-79
2022/07/19 02:36:00;;;;;;;;;;;23.00;57.30;;;;;;4876778;29;19926;-79
2022/07/19 02:38:26;;;;;;;;;;;22.90;57.20;;;;;;4875867;29;20365;-79
2022/07/19 02:40:52;;;;;;;;;;;22.90;57.20;;;;;;4875790;29;19919;-79
2022/07/19 02:43:17;;;;;;;;;;;22.70;57.20;;;;;;4877049;29;20314;-78
2022/07/19 02:45:43;;;;;;;;;;;22.60;57.30;;;;;;4876530;29;19916;-79
2022/07/19 02:48:09;;;;;;;;;;;22.50;57.40;;;;;;4877531;29;19911;-79
2022/07/19 02:50:34;;;;;;;;;;;22.50;57.40;;;;;;4860737;29;19922;-79
2022/07/19 02:53:00;;;;;;;;;;;22.40;57.40;;;;;;4876347;29;19918;-79
2022/07/19 02:55:26;;;;;;;;;;;22.40;57.30;;;;;;4877266;29;19919;-79
2022/07/19 02:57:51;;;;;;;;;;;22.40;57.40;;;;;;4861717;29;19958;-79
2022/07/19 03:00:17;;;;;;;;;;;22.30;57.30;;;;;;4876607;29;19920;-79
2022/07/19 03:02:43;;;;;;;;;;;22.20;57.40;;;;;;4876081;29;19931;-79
2022/07/19 03:05:08;;;;;;;;;;;22.20;57.50;;;;;;4877328;29;19918;-79
2022/07/19 03:07:35;;;;;;;;;;;22.10;57.40;;;;;;4875947;29;20337;-80
2022/07/19 03:10:01;;;;;;;;;;;22.00;57.40;;;;;;4878931;29;19912;-79
2022/07/19 03:12:26;;;;;;;;;;;22.00;57.40;;;;;;4878019;29;19955;-79
2022/07/19 03:14:52;;;;;;;;;;;21.90;57.50;;;;;;4878307;29;19992;-79
2022/07/19 03:17:17;;;;;;;;;;;21.90;57.50;;;;;;4876230;29;19916;-79
2022/07/19 03:19:43;;;;;;;;;;;21.80;57.40;;;;;;4878193;29;19916;-79
2022/07/19 03:22:09;;;;;;;;;;;21.80;57.50;;;;;;4877296;29;19915;-79
2022/07/19 03:24:34;;;;;;;;;;;21.90;57.50;;;;;;4880905;29;20014;-79
2022/07/19 03:27:00;;;;;;;;;;;21.90;57.40;;;;;;4882018;29;19919;-79
2022/07/19 03:29:25;;;;;;;;;;;21.80;57.40;;;;;;4878372;29;19919;-79
2022/07/19 03:31:51;;;;;;;;;;;21.80;57.40;;;;;;4877919;29;19907;-79
2022/07/19 03:34:16;;;;;;;;;;;21.80;57.40;;;;;;4877411;29;19991;-79
2022/07/19 03:36:42;;;;;;;;;;;21.70;57.50;;;;;;4878071;29;19915;-78
2022/07/19 03:39:07;;;;;;;;;;;21.80;57.50;;;;;;4880889;29;19951;-78
2022/07/19 03:41:33;;;;;;;;;;;21.80;57.40;;;;;;4878977;29;19943;-78
2022/07/19 03:43:59;;;;;;;;;;;21.70;57.40;;;;;;4876807;29;20365;-78
2022/07/19 03:46:25;;;;;;;;;;;21.70;57.30;;;;;;4879119;29;19907;-78
2022/07/19 03:48:51;;;;;;;;;;;21.60;57.40;;;;;;4879727;29;19956;-76
2022/07/19 03:51:17;;;;;;;;;;;21.50;57.50;;;;;;4877667;29;19912;-78
2022/07/19 03:53:42;;;;;;;;;;;21.50;57.40;;;;;;4876121;29;19967;-78
2022/07/19 03:56:08;;;;;;;;;;;21.40;57.50;;;;;;4876926;29;19943;-78
2022/07/19 03:58:33;;;;;;;;;;;21.30;57.60;;;;;;4878585;29;20014;-78
2022/07/19 04:00:59;;;;;;;;;;;21.30;57.50;;;;;;4875812;29;19939;-78
2022/07/19 04:03:25;;;;;;;;;;;21.20;57.40;;;;;;4874243;29;20416;-78
2022/07/19 04:05:51;;;;;;;;;;;21.20;57.50;;;;;;4875403;29;19911;-80
2022/07/19 04:08:16;;;;;;;;;;;21.20;57.40;;;;;;4860807;29;20353;-78
2022/07/19 04:10:42;;;;;;;;;;;21.20;57.40;;;;;;4877449;29;20277;-78
2022/07/19 04:13:07;;;;;;;;;;;21.20;57.40;;;;;;4876942;29;20007;-78
2022/07/19 04:15:33;;;;;;;;;;;21.10;57.40;;;;;;4876261;29;19911;-78
2022/07/19 04:17:59;;;;;;;;;;;21.10;57.50;;;;;;4873299;29;20294;-78
2022/07/19 04:20:24;;;;;;;;;;;21.10;57.60;;;;;;4875919;29;19919;-78
2022/07/19 04:22:50;;;;;;;;;;;21.10;57.60;;;;;;4874791;29;19920;-78
2022/07/19 04:25:16;;;;;;;;;;;21.20;57.50;;;;;;4875834;29;19972;-78
2022/07/19 04:27:43;;;;;;;;;;;21.20;57.50;;;;;;4877074;29;19908;-78
2022/07/19 04:30:08;;;;;;;;;;;21.20;57.40;;;;;;4877155;29;19912;-78
2022/07/19 04:32:34;;;;;;;;;;;21.20;57.40;;;;;;4876169;29;19930;-78
2022/07/19 04:35:00;;;;;;;;;;;21.20;57.50;;;;;;4876384;29;19915;-78
2022/07/19 04:37:26;;;;;;;;;;;21.20;57.60;;;;;;4873840;29;19919;-78
2022/07/19 04:39:51;;;;;;;;;;;21.20;57.60;;;;;;4876076;29;19940;-78
2022/07/19 04:42:17;;;;;;;;;;;21.20;57.60;;;;;;4875500;29;19964;-78
2022/07/19 04:44:42;;;;;;;;;;;21.30;57.60;;;;;;4860312;29;19912;-78
2022/07/19 04:47:08;;;;;;;;;;;21.40;57.50;;;;;;4875301;29;19911;-78
2022/07/19 04:49:33;;;;;;;;;;;21.40;57.40;;;;;;4876231;29;20347;-79
2022/07/19 04:51:59;;;;;;;;;;;21.40;57.40;;;;;;4875613;29;19927;-78
2022/07/19 04:54:25;;;;;;;;;;;21.40;57.40;;;;;;4877798;29;19915;-78
2022/07/19 04:56:50;;;;;;;;;;;21.30;57.40;;;;;;4878932;29;19908;-79
2022/07/19 04:59:16;;;;;;;;;;;21.30;57.50;;;;;;4877701;29;20014;-79
2022/07/19 05:01:41;;;;;;;;;;;21.30;57.50;;;;;;4875040;29;19924;-78
2022/07/19 05:04:07;;;;;;;;;;;21.30;57.50;;;;;;4876560;29;19928;-79
2022/07/19 05:06:33;;;;;;;;;;;21.40;57.60;;;;;;4876865;29;20163;-78
2022/07/19 05:08:58;;;;;;;;;;;21.40;57.50;;;;;;4880202;29;19963;-79
2022/07/19 05:11:24;;;;;;;;;;;21.50;57.50;;;;;;4879122;29;19907;-79
2022/07/19 05:13:49;;;;;;;;;;;21.50;57.40;;;;;;4877052;29;19990;-79
2022/07/19 05:16:15;;;;;;;;;;;21.60;57.40;;;;;;4875641;29;19958;-78
2022/07/19 05:18:40;;;;;;;;;;;21.60;57.40;;;;;;4876828;29;20276;-78
2022/07/19 05:21:06;;;;;;;;;;;21.70;58.00;;;;;;4875968;29;19960;-78
2022/07/19 05:23:32;;;;;;;;;;;21.70;57.30;;;;;;4880741;29;19912;-79
2022/07/19 05:25:57;;;;;;;;;;;21.80;57.30;;;;;;4878928;29;19918;-79
2022/07/19 05:28:23;;;;;;;;;;;21.90;57.20;;;;;;4879039;29;19908;-79
2022/07/19 05:30:49;;;;;;;;;;;22.00;57.10;;;;;;4877803;29;20360;-79
2022/07/19 05:33:16;;;;;;;;;;;21.90;57.20;;;;;;4877673;29;19912;-79
2022/07/19 05:35:41;;;;;;;;;;;21.90;57.20;;;;;;4876461;29;19908;-79
2022/07/19 05:38:07;;;;;;;;;;;21.80;57.30;;;;;;4874468;29;19920;-78
2022/07/19 05:40:32;;;;;;;;;;;21.80;57.40;;;;;;4876576;29;19982;-79
2022/07/19 05:42:58;;;;;;;;;;;21.90;57.50;;;;;;4877968;29;19908;-79
2022/07/19 05:45:24;;;;;;;;;;;22.10;57.50;;;;;;4876426;29;20002;-79
2022/07/19 05:47:49;;;;;;;;;;;22.10;57.50;;;;;;4877659;29;19916;-79
2022/07/19 05:50:15;;;;;;;;;;;22.40;57.50;;;;;;4886751;29;19967;-79
2022/07/19 05:52:40;;;;;;;;;;;22.60;57.40;;;;;;4886688;29;20404;-78
2022/07/19 05:55:06;;;;;;;;;;;22.70;57.30;;;;;;4887757;29;19915;-78
2022/07/19 05:57:32;;;;;;;;;;;22.70;57.20;;;;;;4890224;29;19916;-78
2022/07/19 05:59:58;;;;;;;;;;;22.70;57.40;;;;;;4894740;29;19926;-78
2022/07/19 06:02:24;;;;;;;;;;;22.80;57.40;;;;;;4897231;29;19919;-78
2022/07/19 06:04:49;;;;;;;;;;;22.90;57.40;;;;;;4894426;29;19911;-78
2022/07/19 06:07:15;;;;;;;;;;;22.90;57.40;;;;;;4882487;29;20372;-78
2022/07/19 06:09:40;;;;;;;;;;;23.00;57.50;;;;;;4883848;29;19911;-78
2022/07/19 06:12:06;;;;;;;;;;;23.20;57.50;;;;;;4868499;29;19912;-78
2022/07/19 06:14:31;;;;;;;;;;;23.30;57.40;;;;;;4885006;29;19912;-78
2022/07/19 06:16:57;;;;;;;;;;;23.40;57.20;;;;;;4887956;29;19919;-78
2022/07/19 06:19:23;;;;;;;;;;;23.60;57.10;;;;;;4888225;29;19911;-78
2022/07/19 06:21:48;;;;;;;;;;;23.60;57.60;;;;;;4888149;29;19911;-78
2022/07/19 06:24:14;;;;;;;;;;;23.70;57.10;;;;;;4886079;29;19932;-78
2022/07/19 06:26:39;;;;;;;;;;;23.90;57.20;;;;;;4882459;29;19982;-78
2022/07/19 06:29:06;;;;;;;;;;;23.90;57.10;;;;;;4885086;29;20345;-78
2022/07/19 06:31:32;;;;;;;;;;;24.00;57.10;;;;;;4886160;29;19912;-78
2022/07/19 06:33:57;;;;;;;;;;;23.90;57.20;;;;;;4884858;29;20276;-79
2022/07/19 06:36:23;;;;;;;;;;;23.90;57.40;;;;;;4886354;29;19911;-79
2022/07/19 06:38:49;;;;;;;;;;;24.00;57.30;;;;;;4870551;29;19935;-79
2022/07/19 06:41:15;;;;;;;;;;;24.10;57.30;;;;;;4885458;29;19919;-79
2022/07/19 06:43:40;;;;;;;;;;;24.20;57.80;;;;;;4887288;29;19911;-79
2022/07/19 06:46:06;;;;;;;;;;;24.30;57.30;;;;;;4885859;29;19932;-79
2022/07/19 06:48:32;;;;;;;;;;;24.50;57.30;;;;;;4886981;29;19915;-79
2022/07/19 06:50:58;;;;;;;;;;;24.60;57.20;;;;;;4885689;29;19928;-79
2022/07/19 06:53:23;;;;;;;;;;;24.70;57.20;;;;;;4888429;29;19907;-80
2022/07/19 06:55:49;;;;;;;;;;;24.90;57.10;;;;;;4889018;29;20011;-79
2022/07/19 06:58:15;;;;;;;;;;;25.00;57.20;;;;;;4889075;29;19916;-79
2022/07/19 07:00:40;;;;;;;;;;;25.20;57.20;;;;;;4884888;29;19920;-80
2022/07/19 07:03:06;;;;;;;;;;;25.50;57.10;;;;;;4883122;29;20006;-80
2022/07/19 07:05:31;;;;;;;;;;;25.70;57.10;;;;;;4859241;29;19911;-80
2022/07/19 07:07:57;;;;;;;;;;;25.90;57.10;;;;;;4877823;29;19912;-80
2022/07/19 07:10:23;;;;;;;;;;;26.20;57.00;;;;;;4878846;29;19923;-80
2022/07/19 07:12:49;;;;;;;;;;;26.30;56.90;;;;;;4861101;29;19916;-79
2022/07/19 07:15:14;;;;;;;;;;;26.30;57.00;;;;;;4875700;29;20369;-80
2022/07/19 07:17:40;;;;;;;;;;;26.30;57.10;;;;;;4873662;29;20015;-80
2022/07/19 07:20:07;;;;;;;;;;;26.30;56.90;;;;;;4874010;29;19999;-80
2022/07/19 07:22:33;;;;;;;;;;;26.30;56.90;;;;;;4875758;29;19907;-80
2022/07/19 07:24:58;;;;;;;;;;;26.30;56.90;;;;;;4875139;29;20393;-78
2022/07/19 07:27:24;;;;;;;;;;;26.30;56.90;;;;;;4876384;29;19918;-79
2022/07/19 07:29:50;;;;;;;;;;;26.40;57.10;;;;;;4874543;29;20392;-79
2022/07/19 07:32:15;;;;;;;;;;;26.50;57.20;;;;;;4876291;29;20006;-79
2022/07/19 07:34:41;;;;;;;;;;;26.90;57.50;;;;;;4875130;29;19912;-79
2022/07/19 07:37:06;;;;;;;;;;;27.40;57.30;;;;;;4878254;29;19911;-80
2022/07/19 07:39:32;;;;;;;;;;;27.60;57.10;;;;;;4877712;29;19918;-79
2022/07/19 07:41:58;;;;;;;;;;;27.60;57.10;;;;;;4880798;29;19912;-79
2022/07/19 07:44:23;;;;;;;;;;;27.70;57.30;;;;;;4877781;29;20007;-79
2022/07/19 07:46:49;;;;;;;;;;;27.90;57.50;;;;;;4879034;29;19915;-79
2022/07/19 07:49:14;;;;;;;;;;;28.40;57.60;;;;;;4881619;29;19919;-78
2022/07/19 07:51:40;;;;;;;;;;;29.20;57.40;;;;;;4877449;29;19912;-79
2022/07/19 07:54:05;;;;;;;;;;;30.40;57.20;;;;;;4876920;29;19979;-79
2022/07/19 07:56:31;;;;;;;;;;;31.60;56.80;;;;;;4876150;29;19971;-79
2022/07/19 07:58:56;;;;;;;;;;;32.30;56.20;;;;;;4881452;29;19919;-79
2022/07/19 08:01:22;;;;;;;;;;;32.80;56.30;;;;;;4882183;29;19940;-79
2022/07/19 08:03:48;;;;;;;;;;;33.70;56.70;;;;;;4880563;29;19914;-79
2022/07/19 08:06:15;;;;;;;;;;;34.80;56.80;;;;;;4876833;29;19913;-80
2022/07/19 08:08:41;;;;;;;;;;;35.70;56.60;;;;;;4880785;29;19935;-80
2022/07/19 08:11:07;;;;;;;;;;;36.50;56.50;;;;;;4880876;29;19942;-80
2022/07/19 08:13:32;;;;;;;;;;;36.80;56.20;;;;;;4884801;29;19912;-80
2022/07/19 08:15:58;;;;;;;;;;;36.00;56.20;;;;;;4886671;29;19931;-79
2022/07/19 08:18:23;;;;;;;;;;;35.00;56.70;;;;;;4884745;29;19916;-79
2022/07/19 08:20:49;;;;;;;;;;;34.20;57.40;;;;;;4878072;29;19912;-79
2022/07/19 08:23:15;;;;;;;;;;;33.80;58.10;;;;;;4879985;29;19987;-80
2022/07/19 08:25:40;;;;;;;;;;;34.10;58.50;;;;;;4878490;29;20430;-80
2022/07/19 08:28:06;;;;;;;;;;;34.60;58.20;;;;;;4876305;29;20404;-79
2022/07/19 08:30:32;;;;;;;;;;;35.00;57.90;;;;;;4875672;29;19911;-79
2022/07/19 08:32:57;;;;;;;;;;;35.60;57.90;;;;;;4875296;29;19915;-78
2022/07/19 08:35:23;;;;;;;;;;;36.40;57.80;;;;;;4875587;29;19911;-80
2022/07/19 08:37:49;;;;;;;;;;;37.10;57.50;;;;;;4873346;29;19926;-78
2022/07/19 08:40:14;;;;;;;;;;;37.80;57.20;;;;;;4873242;29;19911;-74
2022/07/19 08:42:40;;;;;;;;;;;38.00;57.10;;;;;;4874816;29;20519;-79
2022/07/19 08:45:08;;;;;;;;;;;38.20;57.30;;;;;;4874351;29;19943;-80
2022/07/19 08:47:34;;;;;;;;;;;38.50;57.20;;;;;;4874233;29;19928;-80
2022/07/19 08:50:00;;;;;;;;;;;38.30;56.80;;;;;;4874556;29;19920;-80
2022/07/19 08:52:26;;;;;;;;;;;37.70;56.90;;;;;;4872383;29;20042;-80
2022/07/19 08:54:51;;;;;;;;;;;36.90;57.50;;;;;;4874071;29;19927;-80
2022/07/19 09:00:01;;;;;;;;;;;35.80;58.40;;;;;;4872707;29;20014;-79
2022/07/19 09:02:27;;;;;;;;;;;35.50;58.70;;;;;;4873577;29;20547;-80
2022/07/19 09:05:07;;;;;;;;;;;35.20;58.60;;;;;;4856912;29;19920;-80
2022/07/19 09:07:39;;;;;;;;;;;35.10;58.60;;;;;;4872656;29;19991;-79
2022/07/19 09:10:18;;;;;;;;;;;34.80;58.50;;;;;;4873812;29;20361;-79
2022/07/19 09:13:00;;;;;;;;;;;34.30;58.50;;;;;;4873504;29;20346;-79
2022/07/19 09:15:42;;;;;;;;;;;33.90;59.10;;;;;;4875832;29;19915;-81
2022/07/19 09:18:10;;;;;;;;;;;33.60;58.70;;;;;;4878907;29;20562;-81
2022/07/19 09:20:35;;;;;;;;;;;33.30;58.60;;;;;;4881185;29;19911;-82
2022/07/19 09:23:01;;;;;;;;;;;33.00;58.60;;;;;;4879434;29;19908;-82
2022/07/19 09:25:43;;;;;;;;;;;32.80;58.70;;;;;;4879780;29;19907;-82
2022/07/19 09:28:09;;;;;;;;;;;32.60;58.60;;;;;;4879405;29;19914;-81
2022/07/19 09:30:37;;;;;;;;;;;32.40;58.60;;;;;;4879156;29;20454;-75
2022/07/19 09:33:10;;;;;;;;;;;32.00;58.60;;;;;;4879555;29;19908;-83
2022/07/19 09:35:37;;;;;;;;;;;31.70;58.80;;;;;;4878049;29;19912;-83
2022/07/19 09:38:15;;;;;;;;;;;31.40;59.10;;;;;;4879146;29;19916;-83
2022/07/19 09:40:40;;;;;;;;;;;31.40;59.20;;;;;;4877986;29;20333;-83
2022/07/19 09:43:06;;;;;;;;;;;31.40;59.10;;;;;;4879097;29;19919;-83
2022/07/19 09:45:32;;;;;;;;;;;31.50;58.70;;;;;;4878834;29;19911;-83
2022/07/19 09:48:00;;;;;;;;;;;31.50;58.30;;;;;;4879155;29;19912;-83
2022/07/19 09:50:26;;;;;;;;;;;31.40;58.00;;;;;;4877599;29;19908;-84
2022/07/19 09:52:52;;;;;;;;;;;31.30;57.90;;;;;;4879028;29;19915;-84
2022/07/19 09:55:19;;;;;;;;;;;31.20;58.00;;;;;;4877951;29;19948;-84
2022/07/19 09:57:46;;;;;;;;;;;31.30;58.20;;;;;;4877367;29;19922;-83
2022/07/19 10:00:12;;;;;;;;;;;31.50;58.20;;;;;;4878618;29;19956;-84
2022/07/19 10:02:39;;;;;;;;;;;31.90;58.20;;;;;;4879903;29;19955;-84
2022/07/19 10:05:05;;;;;;;;;;;32.50;58.30;;;;;;4879122;29;19912;-83
2022/07/19 10:07:31;;;;;;;;;;;32.90;58.00;;;;;;4878548;29;19919;-83
2022/07/19 10:09:57;;;;;;;;;;;33.30;57.80;;;;;;4878973;29;19960;-83
2022/07/19 10:12:23;;;;;;;;;;;33.70;57.80;;;;;;4878763;29;20399;-83
2022/07/19 10:14:49;;;;;;;;;;;34.20;58.30;;;;;;4862097;29;19947;-83
2022/07/19 10:17:20;;;;;;;;;;;35.00;58.50;;;;;;4879027;29;19933;-83
2022/07/19 10:19:47;;;;;;;;;;;36.00;58.50;;;;;;4879417;29;19914;-82
2022/07/19 10:22:13;;;;;;;;;;;37.10;58.30;;;;;;4879306;29;19912;-84
2022/07/19 10:24:50;;;;;;;;;;;37.90;58.10;;;;;;4879636;29;19919;-83
2022/07/19 10:27:17;;;;;;;;;;;38.60;58.10;;;;;;4877672;29;20388;-84
2022/07/19 10:29:43;;;;;;;;;;;39.30;57.90;;;;;;4878588;29;19914;-84
2022/07/19 10:32:13;;;;;;;;;;;39.50;57.40;;;;;;4862880;29;19916;-85
2022/07/19 10:34:38;;;;;;;;;;;39.60;57.50;;;;;;4879716;29;19915;-85
2022/07/19 10:37:04;;;;;;;;;;;39.80;57.80;;;;;;4878887;29;19908;-85
2022/07/19 10:39:39;;;;;;;;;;;40.00;57.80;;;;;;4878994;29;19934;-85
2022/07/19 10:42:05;;;;;;;;;;;40.20;57.80;;;;;;4879569;29;19912;-85
2022/07/19 10:44:31;;;;;;;;;;;40.30;58.00;;;;;;4878798;29;20860;-85
2022/07/19 10:46:56;;;;;;;;;;;40.20;57.60;;;;;;4877910;29;19984;-85
2022/07/19 10:49:41;;;;;;;;;;;39.90;57.70;;;;;;4879881;29;20376;-84
2022/07/19 10:52:25;;;;;;;;;;;39.90;57.90;;;;;;4881254;29;19915;-83
2022/07/19 10:55:16;;;;;;;;;;;39.50;57.70;;;;;;4861284;29;19908;-82
2022/07/19 10:57:52;;;;;;;;;;;38.80;57.40;;;;;;4861185;29;19923;-84
2022/07/19 11:00:17;;;;;;;;;;;37.80;57.50;;;;;;4876836;29;19916;-84
2022/07/19 11:02:43;;;;;;;;;;;36.90;57.60;;;;;;4884523;29;19963;-84
2022/07/19 11:05:20;;;;;;;;;;;36.20;57.80;;;;;;4881184;29;19923;-85
2022/07/19 11:07:53;;;;;;;;;;;35.60;58.00;;;;;;4874358;29;19914;-85
2022/07/19 11:10:29;;;;;;;;;;;35.20;58.20;;;;;;4878343;29;19907;-83
2022/07/19 11:12:55;;;;;;;;;;;35.10;58.40;;;;;;4875820;29;19915;-82
2022/07/19 11:15:22;;;;;;;;;;;35.00;58.30;;;;;;4880525;29;19918;-85
2022/07/19 11:17:51;;;;;;;;;;;34.80;58.10;;;;;;4877725;29;19915;-84
2022/07/19 11:20:18;;;;;;;;;;;34.50;57.90;;;;;;4879582;29;19908;-83
2022/07/19 11:22:45;;;;;;;;;;;34.00;57.70;;;;;;4881590;29;19912;-84
2022/07/19 11:25:12;;;;;;;;;;;33.60;57.90;;;;;;4882865;29;19908;-83
2022/07/19 11:27:41;;;;;;;;;;;33.30;58.00;;;;;;4865382;29;19922;-82
2022/07/19 11:30:07;;;;;;;;;;;32.90;57.90;;;;;;4883161;29;19908;-81
2022/07/19 11:32:33;;;;;;;;;;;32.70;58.00;;;;;;4883042;29;19912;-81
2022/07/19 11:35:00;;;;;;;;;;;32.40;58.00;;;;;;4880958;29;19915;-81
2022/07/19 11:37:27;;;;;;;;;;;32.20;58.10;;;;;;4876946;29;19912;-81
2022/07/19 11:39:52;;;;;;;;;;;32.20;58.10;;;;;;4880625;29;19983;-82
2022/07/19 11:42:33;;;;;;;;;;;32.20;58.10;;;;;;4882329;29;19912;-82
2022/07/19 11:45:06;;;;;;;;;;;32.30;58.10;;;;;;4881990;29;19912;-83
2022/07/19 11:47:32;;;;;;;;;;;32.40;58.10;;;;;;4882166;29;19994;-82
2022/07/19 11:50:03;;;;;;;;;;;32.70;58.00;;;;;;4881327;29;19946;-85
2022/07/19 11:52:28;;;;;;;;;;;32.90;57.90;;;;;;4882376;29;19908;-82
2022/07/19 11:54:57;;;;;;;;;;;32.90;57.60;;;;;;4882966;29;19947;-82
2022/07/19 11:57:24;;;;;;;;;;;32.70;57.40;;;;;;4878527;29;19954;-84
2022/07/19 11:59:49;;;;;;;;;;;32.60;57.40;;;;;;4882071;29;19912;-83
2022/07/19 12:02:15;;;;;;;;;;;32.30;57.20;;;;;;4882450;29;19939;-84
2022/07/19 12:04:40;;;;;;;;;;;32.00;57.30;;;;;;4868660;29;20387;-84
2022/07/19 12:07:06;;;;;;;;;;;31.50;57.40;;;;;;4880782;29;19908;-82
2022/07/19 12:09:33;;;;;;;;;;;31.30;57.60;;;;;;4881591;29;19912;-82
2022/07/19 12:11:59;;;;;;;;;;;31.00;57.70;;;;;;4880057;29;19918;-84
2022/07/19 12:14:27;;;;;;;;;;;30.80;57.80;;;;;;4877490;29;20353;-80
2022/07/19 12:17:09;;;;;;;;;;;30.50;58.00;;;;;;4878055;29;20001;-83
2022/07/19 12:19:34;;;;;;;;;;;30.30;58.30;;;;;;4876774;29;20368;-83
2022/07/19 12:22:00;;;;;;;;;;;30.20;58.50;;;;;;4861930;29;19919;-83
2022/07/19 12:24:28;;;;;;;;;;;30.20;58.30;;;;;;4878000;29;19911;-82
2022/07/19 12:26:56;;;;;;;;;;;30.20;58.10;;;;;;4877741;29;19907;-83
2022/07/19 12:29:31;;;;;;;;;;;30.10;58.10;;;;;;4878857;29;19908;-82
2022/07/19 12:32:15;;;;;;;;;;;29.80;58.20;;;;;;4879970;29;19907;-83
2022/07/19 12:34:56;;;;;;;;;;;29.70;58.60;;;;;;4878244;29;20343;-83
2022/07/19 12:37:30;;;;;;;;;;;29.80;58.90;;;;;;4878355;29;19919;-83
2022/07/19 12:39:56;;;;;;;;;;;30.20;59.10;;;;;;4883915;29;20067;-83
2022/07/19 12:42:21;;;;;;;;;;;31.30;59.40;;;;;;4880414;29;20369;-84
2022/07/19 12:44:49;;;;;;;;;;;31.90;58.70;;;;;;4877988;29;19912;-83
2022/07/19 12:47:15;;;;;;;;;;;32.20;58.30;;;;;;4875219;29;19919;-81
2022/07/19 12:49:44;;;;;;;;;;;32.30;58.10;;;;;;4878158;29;19908;-83
2022/07/19 12:52:10;;;;;;;;;;;32.20;57.80;;;;;;4880582;29;19908;-82
2022/07/19 12:54:36;;;;;;;;;;;32.20;57.90;;;;;;4882177;29;19955;-83
2022/07/19 12:57:01;;;;;;;;;;;32.00;57.90;;;;;;4883178;29;19907;-82
2022/07/19 12:59:39;;;;;;;;;;;31.80;58.00;;;;;;4881601;29;20379;-81
2022/07/19 13:02:13;;;;;;;;;;;31.70;58.10;;;;;;4879889;29;19985;-81
2022/07/19 13:04:39;;;;;;;;;;;31.60;58.50;;;;;;4882093;29;19908;-82
2022/07/19 13:07:05;;;;;;;;;;;31.70;58.70;;;;;;4879345;29;20276;-83
2022/07/19 13:09:31;;;;;;;;;;;32.20;59.10;;;;;;4880097;29;19930;-83
2022/07/19 13:11:57;;;;;;;;;;;33.00;59.50;;;;;;4887064;29;19912;-83
2022/07/19 13:14:23;;;;;;;;;;;33.70;59.40;;;;;;4880600;29;19915;-83
2022/07/19 13:16:49;;;;;;;;;;;34.40;59.30;;;;;;4878771;29;19912;-83
2022/07/19 13:19:15;;;;;;;;;;;35.30;59.50;;;;;;4878823;29;19916;-83
2022/07/19 13:21:41;;;;;;;;;;;35.80;59.40;;;;;;4879479;29;20269;-83
2022/07/19 13:24:06;;;;;;;;;;;36.10;59.10;;;;;;4878452;29;20561;-84
2022/07/19 13:26:32;;;;;;;;;;;36.20;58.90;;;;;;4880152;29;19912;-83
2022/07/19 13:28:57;;;;;;;;;;;36.20;58.60;;;;;;4879673;29;19911;-83
2022/07/19 13:31:23;;;;;;;;;;;36.00;58.40;;;;;;4878804;29;19919;-81
2022/07/19 13:33:51;;;;;;;;;;;35.70;58.40;;;;;;4878642;29;19916;-82
2022/07/19 13:36:17;;;;;;;;;;;35.40;58.50;;;;;;4878283;29;19912;-83
2022/07/19 13:38:42;;;;;;;;;;;35.20;58.60;;;;;;4862949;29;20432;-82
2022/07/19 13:41:08;;;;;;;;;;;35.20;58.80;;;;;;4878661;29;19912;-82
2022/07/19 13:43:34;;;;;;;;;;;35.00;58.60;;;;;;4879646;29;19912;-81
2022/07/19 13:45:59;;;;;;;;;;;34.80;58.50;;;;;;4882219;29;19922;-82
2022/07/19 13:48:25;;;;;;;;;;;34.60;58.50;;;;;;4880045;29;19939;-82
2022/07/19 13:50:52;;;;;;;;;;;34.30;58.40;;;;;;4879042;29;20338;-81
2022/07/19 13:53:17;;;;;;;;;;;34.10;58.60;;;;;;4878576;29;19911;-81
2022/07/19 13:55:43;;;;;;;;;;;33.90;58.60;;;;;;4878944;29;20355;-81
2022/07/19 13:58:09;;;;;;;;;;;33.80;58.50;;;;;;4877639;29;20445;-81
2022/07/19 14:00:34;;;;;;;;;;;33.70;58.50;;;;;;4876912;29;20019;-81
2022/07/19 14:03:00;;;;;;;;;;;33.70;58.50;;;;;;4879454;29;19911;-83
2022/07/19 14:05:25;;;;;;;;;;;33.60;58.30;;;;;;4882717;29;19919;-84
2022/07/19 14:07:51;;;;;;;;;;;33.40;58.10;;;;;;4884884;29;19908;-77
2022/07/19 14:10:17;;;;;;;;;;;33.30;58.10;;;;;;4885575;29;19916;-82
2022/07/19 14:12:43;;;;;;;;;;;33.30;58.20;;;;;;4884197;29;20376;-82
2022/07/19 14:15:09;;;;;;;;;;;33.30;58.10;;;;;;4887371;29;19943;-81